Time;durP1;ratioP1;P1;durP2;ratioP2;P2;SDS_P1;SDS_P2;PMS_P1;PMS_P2;Temp;Humidity;BMP_temperature;BMP_pressure;BME280_temperature;BME280_humidity;BME280_pressure;Samples;Min_cycle;Max_cycle;Signal;HPM_P1;HPM_P2
2023/04/18 00:01:28;;;;;;;;;11.20;11.20;;;;;8.13;63.96;100782.81;5096741;28;8822;-60
2023/04/18 00:03:56;;;;;;;;;7.80;7.40;;;;;8.13;64.31;100782.81;5096981;28;8834;-60
2023/04/18 00:06:24;;;;;;;;;7.80;6.60;;;;;8.12;64.33;100778.47;5096590;28;8944;-59
2023/04/18 00:08:52;;;;;;;;;11.60;9.80;;;;;8.12;64.27;100777.59;5096509;28;8818;-61
2023/04/18 00:11:20;;;;;;;;;9.00;9.00;;;;;8.10;64.21;100775.03;5096666;28;8825;-60
2023/04/18 00:13:47;;;;;;;;;9.20;8.80;;;;;8.09;64.74;100776.00;5096245;28;8830;-61
2023/04/18 00:16:15;;;;;;;;;9.20;7.80;;;;;8.07;64.89;100775.19;5094672;28;8845;-58
2023/04/18 00:18:44;;;;;;;;;7.00;6.40;;;;;8.05;64.89;100782.41;5095093;28;8834;-60
2023/04/18 00:21:12;;;;;;;;;9.80;9.00;;;;;8.02;64.83;100779.94;5096542;28;8814;-60
2023/04/18 00:23:40;;;;;;;;;14.20;12.00;;;;;7.99;65.14;100785.38;5095709;28;8837;-60
2023/04/18 00:26:08;;;;;;;;;12.20;11.80;;;;;7.96;65.46;100782.91;5096387;28;8830;-61
2023/04/18 00:28:36;;;;;;;;;9.00;9.00;;;;;7.94;65.22;100790.09;5096667;28;8939;-61
2023/04/18 00:31:04;;;;;;;;;7.40;6.20;;;;;7.90;65.30;100787.72;5096630;28;8860;-58
2023/04/18 00:33:32;;;;;;;;;12.20;12.00;;;;;7.87;65.43;100783.44;5096240;28;8825;-59
2023/04/18 00:35:59;;;;;;;;;9.00;9.00;;;;;7.83;65.50;100781.88;5096500;28;8806;-57
2023/04/18 00:38:27;;;;;;;;;14.80;12.60;;;;;7.82;65.64;100788.13;5096083;28;8833;-61
2023/04/18 00:40:55;;;;;;;;;12.60;9.80;;;;;7.80;66.15;100787.34;5096406;28;8822;-60
2023/04/18 00:43:23;;;;;;;;;6.80;6.00;;;;;7.77;66.02;100782.19;5097013;28;9503;-60
2023/04/18 00:45:51;;;;;;;;;9.00;9.00;;;;;7.75;66.21;100781.44;5096295;28;8818;-60
2023/04/18 00:48:18;;;;;;;;;8.80;8.80;;;;;7.73;65.90;100785.97;5095525;28;8818;-61
2023/04/18 00:50:46;;;;;;;;;6.00;6.00;;;;;7.70;65.90;100783.47;5096105;28;8940;-60
2023/04/18 00:53:14;;;;;;;;;8.20;7.00;;;;;7.68;66.06;100782.72;5096538;28;9472;-59
2023/04/18 00:55:42;;;;;;;;;9.00;7.80;;;;;7.65;66.08;100778.53;5096308;28;8837;-61
2023/04/18 00:58:10;;;;;;;;;11.60;9.60;;;;;7.60;66.35;100783.22;5096136;28;8826;-60
2023/04/18 01:00:38;;;;;;;;;10.40;9.60;;;;;7.56;66.65;100774.56;5095855;28;8871;-60
2023/04/18 01:03:07;;;;;;;;;10.40;10.00;;;;;7.54;66.81;100780.88;5096157;28;8830;-59
2023/04/18 01:05:36;;;;;;;;;6.80;6.80;;;;;7.53;66.90;100781.84;5096211;28;8814;-60
2023/04/18 01:08:03;;;;;;;;;9.20;9.00;;;;;7.50;66.94;100782.00;5096237;28;8826;-61
2023/04/18 01:10:31;;;;;;;;;8.60;8.60;;;;;7.47;66.97;100777.72;5095889;28;8864;-59
2023/04/18 01:12:59;;;;;;;;;13.60;12.20;;;;;7.45;67.38;100778.75;5095811;28;8844;-60
2023/04/18 01:15:26;;;;;;;;;11.20;8.80;;;;;7.44;66.71;100783.16;5095516;28;8822;-59
2023/04/18 01:17:54;;;;;;;;;11.60;9.00;;;;;7.46;66.80;100775.16;5095540;28;9543;-59
2023/04/18 01:20:22;;;;;;;;;10.00;9.00;;;;;7.47;66.76;100771.56;5095893;28;8810;-59
2023/04/18 01:22:49;;;;;;;;;10.00;9.40;;;;;7.48;66.68;100773.25;5095192;28;8865;-60
2023/04/18 01:25:17;;;;;;;;;9.60;9.60;;;;;7.50;66.77;100766.94;5095383;28;8934;-59
2023/04/18 01:27:46;;;;;;;;;9.60;9.20;;;;;7.53;66.79;100773.88;5095729;28;8818;-60
2023/04/18 01:30:14;;;;;;;;;11.40;10.00;;;;;7.55;66.64;100769.34;5095646;28;8850;-60
2023/04/18 01:32:41;;;;;;;;;8.20;7.40;;;;;7.58;66.80;100763.91;5095906;28;8814;-59
2023/04/18 01:35:09;;;;;;;;;10.80;7.00;;;;;7.60;66.74;100768.19;5095663;28;8802;-61
2023/04/18 01:37:37;;;;;;;;;8.20;8.20;;;;;7.60;66.69;100764.66;5095877;28;8818;-61
2023/04/18 01:40:05;;;;;;;;;6.20;4.80;;;;;7.59;67.01;100752.34;5095954;28;8798;-60
2023/04/18 01:42:33;;;;;;;;;9.20;7.80;;;;;7.57;66.90;100759.53;5095799;28;8810;-59
2023/04/18 01:45:00;;;;;;;;;7.80;7.00;;;;;7.55;66.77;100758.75;5095867;28;8830;-60
2023/04/18 01:47:28;;;;;;;;;8.80;7.20;;;;;7.55;66.90;100762.25;5095524;28;8837;-61
2023/04/18 01:49:56;;;;;;;;;11.60;11.20;;;;;7.55;67.55;100758.75;5095377;28;8852;-61
2023/04/18 01:52:24;;;;;;;;;8.20;8.20;;;;;7.55;67.19;100759.63;5095223;28;8814;-60
2023/04/18 01:54:51;;;;;;;;;12.60;12.00;;;;;7.53;67.11;100764.16;5097897;28;8829;-61
2023/04/18 01:57:19;;;;;;;;;13.00;12.00;;;;;7.55;67.70;100756.09;5098998;28;8833;-59
2023/04/18 01:59:47;;;;;;;;;9.40;9.00;;;;;7.55;67.31;100756.09;5098729;28;9508;-60
2023/04/18 02:02:14;;;;;;;;;6.00;4.80;;;;;7.56;67.63;100753.38;5099000;28;8829;-61
2023/04/18 02:04:42;;;;;;;;;10.80;9.20;;;;;7.57;67.43;100756.91;5099003;28;8807;-59
2023/04/18 02:07:10;;;;;;;;;13.20;10.80;;;;;7.57;67.27;100755.09;5098891;28;8822;-61
2023/04/18 02:09:38;;;;;;;;;5.20;4.00;;;;;7.57;67.37;100752.44;5098821;28;8847;-60
2023/04/18 02:12:05;;;;;;;;;7.00;7.00;;;;;7.56;67.41;100756.03;5098633;28;8822;-60
2023/04/18 02:14:33;;;;;;;;;4.40;4.00;;;;;7.56;67.58;100748.06;5098921;28;8810;-60
2023/04/18 02:17:01;;;;;;;;;9.00;8.60;;;;;7.59;67.44;100747.91;5099009;28;8903;-60
2023/04/18 02:19:29;;;;;;;;;12.00;10.00;;;;;7.63;67.55;100748.59;5098650;28;8857;-60
2023/04/18 02:21:56;;;;;;;;;7.00;7.00;;;;;7.65;67.40;100746.72;5098757;28;8908;-60
2023/04/18 02:24:24;;;;;;;;;9.20;7.80;;;;;7.67;67.42;100752.78;5098854;28;8798;-61
2023/04/18 02:26:52;;;;;;;;;11.20;10.00;;;;;7.67;67.61;100745.72;5098820;28;8841;-61
2023/04/18 02:29:19;;;;;;;;;12.00;9.60;;;;;7.68;67.49;100751.84;5098447;28;8915;-60
2023/04/18 02:31:47;;;;;;;;;8.20;7.00;;;;;7.71;67.42;100752.53;5098576;28;8864;-60
2023/04/18 02:34:15;;;;;;;;;6.80;6.40;;;;;7.73;67.30;100746.22;5098395;28;8822;-60
2023/04/18 02:36:42;;;;;;;;;7.80;7.40;;;;;7.75;67.36;100749.63;5098756;28;8814;-60
2023/04/18 02:39:10;;;;;;;;;8.20;7.00;;;;;7.77;67.64;100750.38;5098750;28;8826;-61
2023/04/18 02:41:38;;;;;;;;;7.80;7.40;;;;;7.78;67.51;100746.81;5098335;28;8833;-59
2023/04/18 02:44:06;;;;;;;;;7.80;6.80;;;;;7.79;67.57;100751.19;5099153;28;8826;-59
2023/04/18 02:46:34;;;;;;;;;7.40;6.60;;;;;7.81;67.56;100754.59;5098356;28;8848;-59
2023/04/18 02:49:02;;;;;;;;;8.40;8.20;;;;;7.83;67.53;100746.56;5098333;28;8834;-61
2023/04/18 02:51:29;;;;;;;;;9.00;9.00;;;;;7.84;67.49;100751.75;5097860;28;8845;-60
2023/04/18 02:53:58;;;;;;;;;9.00;9.00;;;;;7.87;67.33;100742.78;5097340;28;8857;-58
2023/04/18 02:56:26;;;;;;;;;5.80;4.40;;;;;7.87;67.53;100748.97;5098322;28;8810;-60
2023/04/18 02:58:54;;;;;;;;;8.20;8.20;;;;;7.84;67.54;100741.16;5097827;28;8836;-60
2023/04/18 03:01:22;;;;;;;;;6.00;5.60;;;;;7.79;67.71;100748.53;5098132;28;8838;-61
2023/04/18 03:03:49;;;;;;;;;5.20;3.80;;;;;7.72;68.25;100748.09;5097905;28;8834;-61
2023/04/18 03:06:17;;;;;;;;;10.00;7.00;;;;;7.66;68.31;100754.56;5096420;28;8857;-60
2023/04/18 03:08:45;;;;;;;;;4.40;4.00;;;;;7.61;68.18;100753.13;5098222;28;8906;-60
2023/04/18 03:11:12;;;;;;;;;4.80;4.80;;;;;7.58;68.57;100751.50;5097518;28;8818;-60
2023/04/18 03:13:40;;;;;;;;;9.40;7.80;;;;;7.57;68.80;100756.91;5097739;28;8838;-59
2023/04/18 03:16:08;;;;;;;;;9.20;7.40;;;;;7.54;68.58;100757.03;5097914;28;9600;-61
2023/04/18 03:18:36;;;;;;;;;6.20;6.20;;;;;7.51;68.82;100759.88;5096934;28;8860;-60
2023/04/18 03:21:04;;;;;;;;;6.20;6.20;;;;;7.46;69.13;100759.25;5096512;28;9717;-61
2023/04/18 03:23:31;;;;;;;;;6.00;6.00;;;;;7.42;68.99;100768.31;5096553;28;8903;-58
2023/04/18 03:25:59;;;;;;;;;7.00;7.00;;;;;7.42;69.01;100768.31;5096515;28;8818;-59
2023/04/18 03:28:27;;;;;;;;;9.20;6.60;;;;;7.41;69.11;100761.28;5096760;28;8829;-58
2023/04/18 03:30:55;;;;;;;;;8.80;7.40;;;;;7.41;68.90;100764.81;5096340;28;9536;-60
2023/04/18 03:33:23;;;;;;;;;8.60;7.20;;;;;7.43;69.03;100768.22;5095269;28;8911;-59
2023/04/18 03:35:50;;;;;;;;;4.80;4.80;;;;;7.46;68.96;100767.19;5096535;28;9484;-60
2023/04/18 03:38:18;;;;;;;;;9.60;9.40;;;;;7.50;68.96;100771.41;5096003;28;8857;-59
2023/04/18 03:40:46;;;;;;;;;9.60;7.00;;;;;7.54;68.96;100778.25;5094892;28;8897;-60
2023/04/18 03:43:14;;;;;;;;;7.20;6.80;;;;;7.58;69.18;100769.19;5095509;28;8814;-59
2023/04/18 03:45:42;;;;;;;;;5.00;5.00;;;;;7.60;68.18;100773.50;5095830;28;8860;-58
2023/04/18 03:48:10;;;;;;;;;7.00;7.00;;;;;7.64;68.52;100774.19;5095565;28;8906;-60
2023/04/18 03:50:38;;;;;;;;;6.60;6.00;;;;;7.67;68.25;100782.81;5096224;28;8858;-58
2023/04/18 03:53:05;;;;;;;;;9.40;6.80;;;;;7.69;68.39;100776.47;5096215;28;8832;-59
2023/04/18 03:55:33;;;;;;;;;9.00;7.00;;;;;7.72;68.38;100786.94;5096693;28;8810;-58
2023/04/18 03:58:01;;;;;;;;;7.00;7.00;;;;;7.73;68.32;100779.81;5096153;28;8876;-61
2023/04/18 04:00:29;;;;;;;;;11.00;7.80;;;;;7.74;68.03;100782.38;5096856;28;8842;-60
2023/04/18 04:02:56;;;;;;;;;6.60;4.60;;;;;7.77;68.51;100781.38;5096462;28;8806;-60
2023/04/18 04:05:24;;;;;;;;;6.00;4.00;;;;;7.78;68.29;100783.94;5096378;28;8818;-60
2023/04/18 04:07:52;;;;;;;;;4.00;4.00;;;;;7.79;68.53;100785.66;5096424;28;8817;-58
2023/04/18 04:10:20;;;;;;;;;9.80;9.40;;;;;7.80;68.45;100776.75;5096690;28;8830;-61
2023/04/18 04:12:48;;;;;;;;;5.20;5.20;;;;;7.82;68.56;100785.47;5096425;28;8861;-60
2023/04/18 04:15:15;;;;;;;;;4.00;3.00;;;;;7.83;68.25;100781.03;5096401;28;8802;-60
2023/04/18 04:17:43;;;;;;;;;9.40;8.20;;;;;7.83;68.46;100781.88;5095845;28;8834;-60
2023/04/18 04:20:12;;;;;;;;;9.60;9.20;;;;;7.84;68.74;100788.03;5095963;28;8840;-61
2023/04/18 04:22:40;;;;;;;;;9.00;8.60;;;;;7.85;68.63;100795.06;5096544;28;9511;-60
2023/04/18 04:25:08;;;;;;;;;3.80;3.40;;;;;7.83;69.09;100787.19;5096125;28;8850;-61
2023/04/18 04:27:35;;;;;;;;;6.20;6.20;;;;;7.85;68.58;100795.06;5095894;28;8826;-60
2023/04/18 04:30:03;;;;;;;;;11.60;8.60;;;;;7.87;68.65;100795.81;5096083;28;8842;-59
2023/04/18 04:32:31;;;;;;;;;7.20;6.40;;;;;7.84;68.18;100791.53;5095521;28;8826;-58
2023/04/18 04:34:59;;;;;;;;;10.00;6.80;;;;;7.84;68.42;100796.00;5094953;28;8923;-60
2023/04/18 04:37:27;;;;;;;;;11.20;9.00;;;;;7.84;68.98;100793.34;5094757;28;8862;-60
2023/04/18 04:39:55;;;;;;;;;9.20;9.00;;;;;7.84;68.99;100799.50;5094112;28;9496;-59
2023/04/18 04:42:25;;;;;;;;;10.80;10.80;;;;;7.85;69.01;100795.91;5094096;28;8818;-60
2023/04/18 04:44:53;;;;;;;;;10.80;9.00;;;;;7.83;69.04;100800.44;5095211;28;9781;-60
2023/04/18 04:47:21;;;;;;;;;9.00;7.80;;;;;7.81;69.15;100802.31;5094520;28;8842;-58
2023/04/18 04:49:48;;;;;;;;;11.60;10.80;;;;;7.76;69.24;100799.06;5094926;28;8888;-61
2023/04/18 04:52:16;;;;;;;;;9.00;6.80;;;;;7.71;69.77;100800.25;5094718;28;8826;-61
2023/04/18 04:54:44;;;;;;;;;12.20;10.60;;;;;7.68;69.59;100796.91;5095891;28;9480;-59
2023/04/18 04:57:12;;;;;;;;;9.00;9.00;;;;;7.63;69.29;100796.28;5095820;28;8928;-60
2023/04/18 04:59:40;;;;;;;;;10.00;8.60;;;;;7.59;69.82;100797.41;5095256;28;8830;-58
2023/04/18 05:02:08;;;;;;;;;12.20;9.60;;;;;7.56;69.78;100809.03;5094905;28;8825;-56
2023/04/18 05:04:36;;;;;;;;;10.40;9.80;;;;;7.56;69.79;100810.81;5094836;28;8814;-57
2023/04/18 05:07:04;;;;;;;;;11.20;11.20;;;;;7.57;69.83;100809.91;5095357;28;8818;-57
2023/04/18 05:09:32;;;;;;;;;6.80;6.40;;;;;7.60;69.33;100807.06;5095670;28;8830;-58
2023/04/18 05:12:00;;;;;;;;;10.20;9.00;;;;;7.66;69.72;100810.22;5095480;28;8956;-59
2023/04/18 05:14:28;;;;;;;;;9.80;9.00;;;;;7.70;69.28;100806.50;5094798;28;8830;-57
2023/04/18 05:16:56;;;;;;;;;10.80;10.00;;;;;7.75;69.52;100805.31;5094645;28;8829;-58
2023/04/18 05:19:23;;;;;;;;;12.00;12.00;;;;;7.80;69.51;100810.34;5093475;28;8838;-59
2023/04/18 05:21:51;;;;;;;;;15.40;13.60;;;;;7.83;69.75;100808.38;5093344;28;9766;-60
2023/04/18 05:24:19;;;;;;;;;12.00;10.40;;;;;7.86;69.62;100807.38;5093155;28;8829;-59
2023/04/18 05:26:47;;;;;;;;;14.40;13.40;;;;;7.87;69.45;100817.91;5093117;28;8833;-58
2023/04/18 05:29:15;;;;;;;;;12.00;10.00;;;;;7.91;69.14;100810.63;5094723;28;8834;-59
2023/04/18 05:31:42;;;;;;;;;9.80;9.40;;;;;7.93;69.33;100814.91;5096809;28;8846;-59
2023/04/18 05:34:10;;;;;;;;;13.40;12.40;;;;;7.97;69.06;100821.75;5097919;28;9762;-58
2023/04/18 05:36:38;;;;;;;;;16.40;12.20;;;;;7.99;69.12;100824.31;5098161;28;8833;-57
2023/04/18 05:39:06;;;;;;;;;11.20;10.80;;;;;8.01;68.94;100820.66;5097885;28;8968;-59
2023/04/18 05:41:34;;;;;;;;;15.20;12.60;;;;;8.05;69.06;100824.84;5097812;28;9608;-59
2023/04/18 05:44:02;;;;;;;;;10.40;10.00;;;;;8.08;69.17;100831.78;5097210;28;8822;-60
2023/04/18 05:46:32;;;;;;;;;13.00;12.40;;;;;8.10;69.36;100837.84;5097114;28;9476;-58
2023/04/18 05:49:01;;;;;;;;;10.00;9.20;;;;;8.13;69.33;100837.69;5096751;28;8904;-60
2023/04/18 05:51:30;;;;;;;;;13.20;11.20;;;;;8.14;68.70;100831.44;5096108;28;8838;-59
2023/04/18 05:53:57;;;;;;;;;9.00;7.00;;;;;8.14;69.28;100832.28;5096305;28;8842;-59
2023/04/18 05:56:25;;;;;;;;;14.60;13.40;;;;;8.16;69.05;100833.06;5094891;28;8826;-61
2023/04/18 05:58:53;;;;;;;;;13.20;12.00;;;;;8.19;69.08;100837.34;5096041;28;9611;-60
2023/04/18 06:01:21;;;;;;;;;12.00;11.60;;;;;8.19;68.93;100838.22;5096345;28;9773;-61
2023/04/18 06:03:49;;;;;;;;;12.80;11.60;;;;;8.21;69.20;100846.09;5095608;28;8884;-60
2023/04/18 06:06:17;;;;;;;;;14.00;13.80;;;;;8.24;69.18;100841.50;5096184;28;8826;-60
2023/04/18 06:08:45;;;;;;;;;12.60;11.60;;;;;8.25;68.99;100843.19;5095656;28;8838;-60
2023/04/18 06:11:14;;;;;;;;;8.60;8.60;;;;;8.28;69.13;100845.66;5096417;28;8838;-60
2023/04/18 06:13:43;;;;;;;;;10.80;10.80;;;;;8.31;69.11;100840.22;5096012;28;8956;-61
2023/04/18 06:16:10;;;;;;;;;13.00;10.40;;;;;8.34;68.68;100847.97;5095935;28;8826;-60
2023/04/18 06:18:38;;;;;;;;;13.00;9.60;;;;;8.40;68.83;100844.13;5096484;28;8830;-61
2023/04/18 06:21:06;;;;;;;;;16.20;12.80;;;;;8.45;69.04;100839.41;5096809;28;9714;-61
2023/04/18 06:23:34;;;;;;;;;14.40;13.20;;;;;8.48;68.82;100845.41;5095953;28;8868;-59
2023/04/18 06:26:02;;;;;;;;;11.60;11.60;;;;;8.49;68.45;100841.81;5096106;28;9845;-60
2023/04/18 06:28:29;;;;;;;;;11.20;9.40;;;;;8.51;68.62;100845.22;5096247;28;9545;-60
2023/04/18 06:30:57;;;;;;;;;10.20;9.20;;;;;8.53;68.68;100843.34;5096835;28;8855;-61
2023/04/18 06:33:25;;;;;;;;;11.20;10.00;;;;;8.54;68.92;100855.69;5096257;28;8834;-60
2023/04/18 06:35:53;;;;;;;;;9.40;9.00;;;;;8.58;69.02;100861.69;5096348;28;8817;-60
2023/04/18 06:38:21;;;;;;;;;12.20;11.60;;;;;8.61;68.88;100854.41;5096340;28;8826;-59
2023/04/18 06:40:48;;;;;;;;;16.00;13.40;;;;;8.65;68.90;100852.44;5096237;28;8825;-59
2023/04/18 06:43:16;;;;;;;;;10.40;9.40;;;;;8.69;68.97;100856.59;5097109;28;8830;-61
2023/04/18 06:45:44;;;;;;;;;19.40;14.60;;;;;8.71;68.92;100857.34;5096360;28;8866;-60
2023/04/18 06:48:12;;;;;;;;;15.40;13.80;;;;;8.72;69.03;100857.28;5096292;28;8851;-61
2023/04/18 06:50:40;;;;;;;;;10.60;9.00;;;;;8.77;69.10;100860.53;5096862;28;8829;-60
2023/04/18 06:53:08;;;;;;;;;9.60;9.00;;;;;8.81;68.76;100854.09;5096295;28;8868;-59
2023/04/18 06:55:36;;;;;;;;;9.40;9.40;;;;;8.85;68.91;100854.75;5096208;28;8817;-61
2023/04/18 06:58:04;;;;;;;;;13.00;12.00;;;;;8.87;68.94;100858.19;5095277;28;8860;-60
2023/04/18 07:00:32;;;;;;;;;10.50;10.50;;;;;8.88;68.87;100863.41;5095305;28;8853;-59
2023/04/18 07:03:00;;;;;;;;;11.20;11.20;;;;;8.90;68.98;100864.16;5094957;28;8821;-60
2023/04/18 07:05:28;;;;;;;;;19.80;12.60;;;;;8.93;68.89;100864.00;5095381;28;8841;-58
2023/04/18 07:07:56;;;;;;;;;18.20;15.40;;;;;8.96;68.94;100858.50;5094137;28;8964;-61
2023/04/18 07:10:24;;;;;;;;;12.25;9.50;;;;;8.99;68.96;100853.03;5094255;28;8829;-58
2023/04/18 07:12:52;;;;;;;;;18.60;13.80;;;;;9.03;68.88;100859.88;5094418;28;8838;-61
2023/04/18 07:15:20;;;;;;;;;8.50;6.75;;;;;9.07;69.02;100861.41;5095472;28;8834;-60
2023/04/18 07:17:48;;;;;;;;;13.00;12.80;;;;;9.12;68.89;100861.97;5095492;28;8822;-61
2023/04/18 07:20:16;;;;;;;;;21.00;13.60;;;;;9.17;68.98;100854.59;5095694;28;8910;-60
2023/04/18 07:22:44;;;;;;;;;15.00;14.80;;;;;9.21;68.63;100863.25;5096154;28;8935;-58
2023/04/18 07:25:12;;;;;;;;;15.20;14.40;;;;;9.22;68.73;100867.59;5096181;28;8829;-61
2023/04/18 07:27:40;;;;;;;;;16.80;15.40;;;;;9.20;68.88;100867.69;5096102;28;8940;-61
2023/04/18 07:30:08;;;;;;;;;13.00;12.00;;;;;9.18;69.18;100864.28;5095846;28;8853;-60
2023/04/18 07:32:36;;;;;;;;;11.60;10.00;;;;;9.14;68.89;100876.06;5094849;28;8830;-61
2023/04/18 07:35:04;;;;;;;;;16.40;13.00;;;;;9.12;69.29;100869.94;5095126;28;9072;-61
2023/04/18 07:37:32;;;;;;;;;15.80;14.40;;;;;9.11;69.02;100868.25;5095296;28;8983;-58
2023/04/18 07:40:00;;;;;;;;;12.00;9.60;;;;;9.11;69.08;100878.03;5095434;28;8931;-58
2023/04/18 07:42:28;;;;;;;;;17.60;15.00;;;;;9.10;69.55;100876.28;5095188;28;8865;-58
2023/04/18 07:44:56;;;;;;;;;9.20;7.40;;;;;9.10;69.31;100866.53;5095421;28;8825;-61
2023/04/18 07:47:24;;;;;;;;;15.20;13.40;;;;;9.09;69.95;100872.78;5094142;28;8813;-58
2023/04/18 07:49:56;;;;;;;;;19.00;15.80;;;;;9.10;69.62;100871.84;5093824;28;8826;-59
2023/04/18 07:52:24;;;;;;;;;10.80;10.00;;;;;9.11;69.66;100878.03;5093898;28;8841;-59
2023/04/18 07:54:51;;;;;;;;;4.00;3.00;;;;;9.13;69.37;100884.94;5094404;28;8870;-58
2023/04/18 07:57:19;;;;;;;;;9.20;8.20;;;;;9.12;69.79;100883.22;5094599;28;8842;-58
2023/04/18 07:59:47;;;;;;;;;16.80;12.80;;;;;9.13;69.77;100874.31;5094169;28;8834;-61
2023/04/18 08:02:15;;;;;;;;;17.40;16.00;;;;;9.15;69.84;100879.53;5093503;28;8846;-60
2023/04/18 08:04:43;;;;;;;;;7.00;7.00;;;;;9.17;69.79;100883.81;5093026;28;8830;-59
2023/04/18 08:07:11;;;;;;;;;13.20;12.00;;;;;9.18;69.67;100884.69;5092970;28;8869;-58
2023/04/18 08:09:39;;;;;;;;;12.00;9.00;;;;;9.21;69.55;100884.50;5093011;28;8826;-61
2023/04/18 08:12:07;;;;;;;;;11.20;9.60;;;;;9.20;69.54;100891.59;5091970;28;8846;-59
2023/04/18 08:14:35;;;;;;;;;16.00;14.20;;;;;9.19;69.63;100892.56;5091627;28;8833;-59
2023/04/18 08:17:03;;;;;;;;;9.80;9.20;;;;;9.18;69.93;100895.31;5092478;28;8834;-59
2023/04/18 08:19:31;;;;;;;;;14.20;13.80;;;;;9.16;69.85;100895.41;5093319;28;8834;-59
2023/04/18 08:21:59;;;;;;;;;16.00;12.60;;;;;9.14;69.98;100905.28;5093181;28;8868;-61
2023/04/18 08:24:27;;;;;;;;;13.20;10.40;;;;;9.13;69.95;100900.88;5092515;28;8892;-58
2023/04/18 08:26:56;;;;;;;;;15.20;13.40;;;;;9.13;70.45;100905.34;5093705;28;8829;-60
2023/04/18 08:29:24;;;;;;;;;16.20;12.00;;;;;9.12;70.39;100895.69;5093813;28;8836;-61
2023/04/18 08:31:51;;;;;;;;;8.20;7.00;;;;;9.13;70.57;100900.88;5094063;28;9515;-60
2023/04/18 08:34:19;;;;;;;;;19.20;17.20;;;;;9.14;70.05;100893.78;5093603;28;8833;-60
2023/04/18 08:36:47;;;;;;;;;18.20;17.20;;;;;9.15;69.86;100909.63;5094183;28;8829;-61
2023/04/18 08:39:15;;;;;;;;;15.50;15.25;;;;;9.14;70.63;100902.63;5094586;28;8889;-60
2023/04/18 08:41:43;;;;;;;;;20.60;16.40;;;;;9.15;71.02;100901.66;5094320;28;9504;-61
2023/04/18 08:44:11;;;;;;;;;15.60;12.40;;;;;9.18;70.44;100901.47;5094638;28;8826;-60
2023/04/18 08:46:39;;;;;;;;;12.20;10.00;;;;;9.20;70.57;100898.75;5095079;28;8846;-61
2023/04/18 08:49:07;;;;;;;;;18.60;16.80;;;;;9.21;70.60;100909.28;5095244;28;8930;-62
2023/04/18 08:51:37;;;;;;;;;15.00;14.20;;;;;9.21;70.74;100911.94;5094707;28;8838;-61
2023/04/18 08:54:06;;;;;;;;;15.80;14.20;;;;;9.22;71.06;100911.00;5094677;28;8849;-63
2023/04/18 08:56:36;;;;;;;;;14.60;12.20;;;;;9.23;70.72;100904.72;5094783;28;8873;-62
2023/04/18 08:59:04;;;;;;;;;15.80;13.40;;;;;9.25;70.47;100901.97;5094218;28;8830;-61
2023/04/18 09:01:32;;;;;;;;;13.40;12.60;;;;;9.27;70.91;100910.72;5094682;28;8911;-62
2023/04/18 09:04:00;;;;;;;;;12.60;12.60;;;;;9.29;70.54;100909.69;5097546;28;8956;-61
2023/04/18 09:06:29;;;;;;;;;17.80;16.00;;;;;9.31;70.71;100910.44;5098832;28;8848;-62
2023/04/18 09:08:57;;;;;;;;;17.80;16.00;;;;;9.34;70.61;100912.91;5098797;28;8822;-59
2023/04/18 09:11:27;;;;;;;;;17.60;15.40;;;;;9.38;70.71;100905.63;5097907;28;8842;-58
2023/04/18 09:13:57;;;;;;;;;14.20;10.80;;;;;9.43;70.92;100912.34;5096756;28;8853;-61
2023/04/18 09:16:26;;;;;;;;;18.75;15.75;;;;;9.47;70.56;100919.22;5097053;28;9499;-61
2023/04/18 09:18:54;;;;;;;;;21.20;20.00;;;;;9.52;70.22;100913.63;5097553;28;8837;-60
2023/04/18 09:21:22;;;;;;;;;19.00;18.50;;;;;9.56;70.90;100916.00;5096034;28;8854;-60
2023/04/18 09:23:50;;;;;;;;;16.67;13.00;;;;;9.64;70.15;100920.88;5096269;28;8826;-60
2023/04/18 09:26:19;;;;;;;;;16.50;13.75;;;;;9.71;70.10;100914.25;5096286;28;8845;-60
2023/04/18 09:28:47;;;;;;;;;8.20;7.60;;;;;9.78;70.06;100913.78;5096419;28;8833;-62
2023/04/18 09:31:16;;;;;;;;;18.75;17.00;;;;;9.84;70.52;100907.22;5095694;28;8865;-60
2023/04/18 09:33:45;;;;;;;;;14.25;13.50;;;;;9.95;69.78;100912.75;5095948;28;8837;-59
2023/04/18 09:36:13;;;;;;;;;16.50;14.00;;;;;10.07;69.68;100907.56;5095849;28;8861;-60
2023/04/18 09:38:41;;;;;;;;;18.50;17.50;;;;;10.17;69.55;100906.00;5095881;28;8846;-61
2023/04/18 09:41:09;;;;;;;;;16.25;15.75;;;;;10.28;68.84;100902.69;5096224;28;8842;-60
2023/04/18 09:43:37;;;;;;;;;18.75;15.25;;;;;10.35;69.33;100915.53;5095498;28;8918;-59
2023/04/18 09:46:05;;;;;;;;;23.00;16.00;;;;;10.43;69.19;100901.72;5095761;28;8852;-59
2023/04/18 09:48:33;;;;;;;;;13.75;12.75;;;;;10.50;69.31;100903.03;5096081;28;8834;-61
2023/04/18 09:51:01;;;;;;;;;16.00;14.00;;;;;10.61;68.85;100900.56;5096300;28;8848;-60
2023/04/18 09:53:29;;;;;;;;;17.50;16.00;;;;;10.73;68.63;100892.63;5095893;28;9724;-59
2023/04/18 09:55:57;;;;;;;;;11.75;11.25;;;;;10.87;68.45;100897.03;5096422;28;8918;-61
2023/04/18 09:58:25;;;;;;;;;15.75;13.50;;;;;11.00;67.63;100884.63;5096095;28;8855;-62
2023/04/18 10:00:53;;;;;;;;;17.00;14.50;;;;;11.08;67.72;100891.13;5096286;28;8980;-62
2023/04/18 10:03:21;;;;;;;;;21.25;18.50;;;;;11.18;67.77;100894.91;5095416;28;8842;-61
2023/04/18 10:05:49;;;;;;;;;17.00;16.00;;;;;11.24;67.87;100891.81;5096119;28;8836;-59
2023/04/18 10:08:17;;;;;;;;;17.25;15.00;;;;;11.32;67.41;100884.19;5096622;28;8822;-62
2023/04/18 10:10:45;;;;;;;;;14.00;11.50;;;;;11.45;67.47;100886.88;5096787;28;8826;-60
2023/04/18 10:13:14;;;;;;;;;15.50;15.50;;;;;11.60;67.33;100881.34;5096563;28;8846;-61
2023/04/18 10:15:47;;;;;;;;;19.50;18.00;;;;;11.79;66.71;100887.13;5095992;28;8821;-60
2023/04/18 10:18:18;;;;;;;;;16.75;14.50;;;;;12.01;66.46;100876.66;5096795;28;8834;-58
2023/04/18 10:20:46;;;;;;;;;9.50;9.00;;;;;12.15;65.72;100879.22;5096508;28;8834;-57
2023/04/18 10:23:14;;;;;;;;;16.50;15.25;;;;;12.20;65.50;100875.25;5096294;28;8833;-60
2023/04/18 10:25:42;;;;;;;;;16.50;15.50;;;;;12.30;65.52;100878.13;5096069;28;8814;-58
2023/04/18 10:28:11;;;;;;;;;18.50;15.75;;;;;12.36;65.46;100875.00;5096106;28;8965;-59
2023/04/18 10:30:39;;;;;;;;;20.50;16.50;;;;;12.40;65.39;100876.50;5096912;28;8853;-58
2023/04/18 10:33:07;;;;;;;;;13.00;11.50;;;;;12.38;65.29;100878.44;5096477;28;8918;-60
2023/04/18 10:35:52;;;;;;;;;15.75;13.00;;;;;12.38;65.46;100886.44;5097262;28;8858;-60
2023/04/18 10:38:20;;;;;;;;;15.00;14.50;;;;;12.42;65.88;100877.22;5096379;28;9056;-57
2023/04/18 10:40:48;;;;;;;;;10.50;9.50;;;;;12.46;65.23;100871.56;5095597;28;8845;-60
2023/04/18 10:43:17;;;;;;;;;21.50;18.50;;;;;12.51;65.78;100873.88;5095367;28;8853;-62
2023/04/18 10:45:45;;;;;;;;;10.75;9.50;;;;;12.62;64.70;100865.97;5093931;28;8830;-59
2023/04/18 10:48:13;;;;;;;;;19.00;18.00;;;;;12.80;64.73;100864.59;5094429;28;8956;-58
2023/04/18 10:50:41;;;;;;;;;13.50;13.50;;;;;12.96;64.77;100865.19;5094929;28;8830;-58
2023/04/18 10:53:09;;;;;;;;;19.50;16.00;;;;;13.00;64.16;100861.31;5095339;28;9756;-60
2023/04/18 10:55:37;;;;;;;;;19.00;12.75;;;;;13.03;64.43;100866.44;5095434;28;8845;-58
2023/04/18 10:58:05;;;;;;;;;21.75;20.00;;;;;13.08;63.96;100864.28;5094751;28;8842;-60
2023/04/18 11:00:33;;;;;;;;;21.25;21.25;;;;;13.15;64.75;100854.81;5095227;28;8842;-60
2023/04/18 11:03:01;;;;;;;;;21.00;18.50;;;;;13.26;64.10;100857.53;5095621;28;8848;-60
2023/04/18 11:05:29;;;;;;;;;21.75;20.50;;;;;13.31;63.93;100850.00;5095202;28;8830;-60
2023/04/18 11:07:58;;;;;;;;;19.75;15.75;;;;;13.30;63.70;100853.66;5094511;28;8826;-59
2023/04/18 11:10:26;;;;;;;;;19.50;19.00;;;;;13.27;63.71;100852.06;5093441;28;8840;-58
2023/04/18 11:12:55;;;;;;;;;18.00;14.00;;;;;13.31;63.82;100850.00;5093806;28;8900;-60
2023/04/18 11:15:23;;;;;;;;;20.25;16.50;;;;;13.38;64.03;100851.25;5093987;28;8865;-59
2023/04/18 11:17:52;;;;;;;;;17.00;16.50;;;;;13.40;63.83;100855.53;5094528;28;8833;-60
2023/04/18 11:20:20;;;;;;;;;16.50;16.00;;;;;13.37;63.88;100849.56;5093981;28;8822;-57
2023/04/18 11:22:48;;;;;;;;;18.25;15.50;;;;;13.30;63.61;100848.31;5094310;28;8965;-60
2023/04/18 11:25:16;;;;;;;;;20.00;18.00;;;;;13.29;63.66;100854.63;5094336;28;8889;-59
2023/04/18 11:27:44;;;;;;;;;20.00;16.50;;;;;13.31;63.65;100844.66;5093082;28;9491;-59
2023/04/18 11:30:12;;;;;;;;;18.25;15.50;;;;;13.36;63.86;100840.66;5093576;28;8845;-60
2023/04/18 11:32:40;;;;;;;;;15.00;14.00;;;;;13.48;63.33;100845.09;5092977;28;8829;-58
2023/04/18 11:35:08;;;;;;;;;11.75;10.00;;;;;13.66;63.09;100846.31;5094018;28;8868;-59